Time;durP1;ratioP1;P1;durP2;ratioP2;P2;SDS_P1;SDS_P2;PMS_P1;PMS_P2;Temp;Humidity;BMP_temperature;BMP_pressure;BME280_temperature;BME280_humidity;BME280_pressure;Samples;Min_cycle;Max_cycle;Signal;HPM_P1;HPM_P2
2022/09/23 00:01:16;;;;;;;18.20;14.27;;;8.40;99.90;;;;;;5028684;28;20226;-64
2022/09/23 00:03:44;;;;;;;17.23;14.20;;;8.40;99.90;;;;;;5033322;28;20678;-66
2022/09/23 00:06:12;;;;;;;20.70;14.70;;;8.30;99.90;;;;;;5033470;28;20203;-66
2022/09/23 00:08:39;;;;;;;20.90;13.47;;;8.40;99.90;;;;;;5028023;28;20298;-66
2022/09/23 00:11:13;;;;;;;18.67;13.47;;;8.30;99.90;;;;;;5042241;28;20235;-64
2022/09/23 00:13:41;;;;;;;21.67;13.03;;;8.30;99.90;;;;;;5032738;28;20639;-65
2022/09/23 00:16:09;;;;;;;17.13;13.83;;;8.40;99.90;;;;;;5037333;28;20567;-66
2022/09/23 00:18:35;;;;;;;19.33;14.30;;;8.30;99.90;;;;;;5027452;28;20306;-66
2022/09/23 00:21:04;;;;;;;17.73;13.57;;;8.30;99.90;;;;;;5034222;28;20274;-65
2022/09/23 00:23:30;;;;;;;17.37;13.57;;;8.30;99.90;;;;;;5028992;28;20697;-66
2022/09/23 00:25:57;;;;;;;17.63;13.33;;;8.30;99.90;;;;;;5030557;28;20195;-65
2022/09/23 00:28:23;;;;;;;19.33;12.77;;;8.30;99.90;;;;;;5033985;28;20218;-65
2022/09/23 00:30:49;;;;;;;17.27;12.17;;;8.20;99.90;;;;;;5025681;28;20650;-65
2022/09/23 00:33:14;;;;;;;16.70;13.13;;;8.20;99.90;;;;;;5026267;28;20241;-65
2022/09/23 00:35:40;;;;;;;13.73;10.33;;;8.20;99.90;;;;;;5018142;28;20279;-65
2022/09/23 00:38:06;;;;;;;14.90;11.20;;;8.10;99.90;;;;;;5030591;28;20298;-66
2022/09/23 00:40:31;;;;;;;13.87;9.73;;;8.10;99.90;;;;;;5025783;28;20191;-65
2022/09/23 00:42:57;;;;;;;18.10;11.00;;;8.10;99.90;;;;;;5040157;28;20275;-65
2022/09/23 00:45:22;;;;;;;12.73;9.80;;;8.10;99.90;;;;;;5023837;28;20195;-66
2022/09/23 00:48:00;;;;;;;12.00;9.47;;;8.10;99.90;;;;;;5037481;28;20195;-67
2022/09/23 00:50:36;;;;;;;13.53;9.23;;;8.00;99.90;;;;;;5030229;28;20252;-67
2022/09/23 00:53:09;;;;;;;11.90;9.73;;;8.00;99.90;;;;;;5024079;28;20642;-65
2022/09/23 00:55:45;;;;;;;9.40;8.03;;;8.00;99.90;;;;;;5018007;28;20235;-65
2022/09/23 00:58:16;;;;;;;9.73;8.23;;;8.00;99.90;;;;;;5027770;28;20433;-65
2022/09/23 01:00:42;;;;;;;9.30;7.73;;;8.00;99.90;;;;;;5022893;28;20181;-64
2022/09/23 01:03:09;;;;;;;11.43;8.20;;;8.00;99.90;;;;;;5021707;28;20203;-64
2022/09/23 01:05:35;;;;;;;8.93;8.03;;;8.10;99.90;;;;;;5024906;28;20541;-64
2022/09/23 01:08:02;;;;;;;9.77;7.83;;;8.10;99.90;;;;;;5026402;28;20206;-64
2022/09/23 01:10:49;;;;;;;7.90;7.10;;;8.10;99.90;;;;;;5011360;28;20188;-64
2022/09/23 01:13:25;;;;;;;8.23;7.00;;;8.20;99.90;;;;;;5008641;28;20206;-65
2022/09/23 01:16:13;;;;;;;9.57;7.73;;;8.20;99.90;;;;;;5023703;28;20175;-64
2022/09/23 01:19:07;;;;;;;10.53;7.80;;;8.20;99.90;;;;;;5015084;28;20756;-66
2022/09/23 01:21:55;;;;;;;8.10;7.07;;;8.10;99.90;;;;;;5021863;28;20194;-65
2022/09/23 01:24:46;;;;;;;11.07;7.67;;;8.10;99.90;;;;;;5015110;28;20200;-65
2022/09/23 01:27:30;;;;;;;7.53;6.83;;;8.20;99.90;;;;;;5009666;28;20298;-68
2022/09/23 01:30:36;;;;;;;9.10;8.20;;;8.10;99.90;;;;;;5021580;28;20224;-67
2022/09/23 01:33:07;;;;;;;9.23;7.10;;;8.10;99.90;;;;;;5009296;28;20195;-66
2022/09/23 01:35:43;;;;;;;10.27;8.23;;;8.10;99.90;;;;;;5022078;28;20180;-66
2022/09/23 01:38:34;;;;;;;12.03;7.57;;;8.10;99.90;;;;;;5006808;28;20763;-66
2022/09/23 01:41:41;;;;;;;8.13;7.33;;;8.10;99.90;;;;;;5022061;28;20179;-65
2022/09/23 01:44:21;;;;;;;7.33;6.63;;;8.10;99.90;;;;;;5015086;28;20222;-65
2022/09/23 01:47:01;;;;;;;7.57;6.73;;;8.10;99.90;;;;;;5022964;28;20216;-65
2022/09/23 01:49:38;;;;;;;8.67;7.07;;;8.00;99.90;;;;;;5015252;28;20203;-65
2022/09/23 01:52:14;;;;;;;11.33;7.87;;;8.10;99.90;;;;;;5011067;28;20243;-66
2022/09/23 01:54:59;;;;;;;7.87;6.50;;;8.00;99.90;;;;;;5018857;28;20214;-66
2022/09/23 01:57:34;;;;;;;10.23;7.33;;;8.00;99.90;;;;;;5015073;28;20286;-66
2022/09/23 02:00:14;;;;;;;8.57;6.93;;;8.00;99.90;;;;;;5019596;28;20215;-66
2022/09/23 02:02:48;;;;;;;8.70;6.70;;;8.00;99.90;;;;;;5012906;28;20187;-65
2022/09/23 02:05:43;;;;;;;10.07;7.50;;;7.90;99.90;;;;;;5011332;28;20284;-65
2022/09/23 02:08:30;;;;;;;8.60;7.70;;;7.90;99.90;;;;;;5016766;28;20203;-66
2022/09/23 02:11:03;;;;;;;14.30;8.60;;;7.90;99.90;;;;;;5024005;28;20188;-64
2022/09/23 02:14:09;;;;;;;14.07;8.90;;;7.80;99.90;;;;;;5017371;28;20210;-64
2022/09/23 02:16:47;;;;;;;11.07;8.33;;;7.80;99.90;;;;;;5020659;28;20273;-64
2022/09/23 02:19:26;;;;;;;11.57;8.97;;;7.80;99.90;;;;;;5016667;28;20210;-65
2022/09/23 02:21:59;;;;;;;14.70;9.63;;;7.80;99.90;;;;;;5033866;28;20194;-64
2022/09/23 02:24:31;;;;;;;9.13;7.63;;;7.80;99.90;;;;;;5024447;28;20745;-64
2022/09/23 02:27:22;;;;;;;10.60;7.90;;;7.80;99.90;;;;;;5028086;28;20203;-64
2022/09/23 02:29:59;;;;;;;14.93;9.43;;;7.70;99.90;;;;;;5022921;28;20812;-64
2022/09/23 02:32:33;;;;;;;13.57;8.83;;;7.70;99.90;;;;;;5011841;28;20662;-65
2022/09/23 02:35:14;;;;;;;12.80;8.67;;;7.70;99.90;;;;;;5022159;28;20544;-64
2022/09/23 02:38:08;;;;;;;14.40;9.73;;;7.70;99.90;;;;;;5019976;28;20286;-66
2022/09/23 02:40:40;;;;;;;8.50;7.23;;;7.70;99.90;;;;;;5025050;28;20191;-65
2022/09/23 02:43:20;;;;;;;10.73;7.90;;;7.70;99.90;;;;;;5019345;28;20191;-66
2022/09/23 02:45:46;;;;;;;10.90;8.60;;;7.60;99.90;;;;;;5019550;28;20573;-65
2022/09/23 02:48:26;;;;;;;12.97;8.83;;;7.60;99.90;;;;;;5040509;28;20915;-64
2022/09/23 02:50:52;;;;;;;10.07;8.93;;;7.60;99.90;;;;;;5035279;28;20226;-63
2022/09/23 02:53:17;;;;;;;9.00;8.10;;;7.60;99.90;;;;;;5026192;28;20784;-65
2022/09/23 02:55:43;;;;;;;10.20;7.77;;;7.60;99.90;;;;;;5018536;28;20180;-65
2022/09/23 02:58:12;;;;;;;11.30;7.80;;;7.60;99.90;;;;;;5036498;28;20234;-64
2022/09/23 03:00:51;;;;;;;11.40;8.33;;;7.60;99.90;;;;;;5024286;28;20195;-65
2022/09/23 03:03:42;;;;;;;12.97;8.10;;;7.60;99.90;;;;;;5014541;28;20195;-64
2022/09/23 03:06:43;;;;;;;11.40;8.10;;;7.60;99.90;;;;;;5024306;28;20184;-64
2022/09/23 03:09:23;;;;;;;12.30;7.93;;;7.60;99.90;;;;;;5017456;28;20309;-65
2022/09/23 03:11:58;;;;;;;12.17;7.93;;;7.60;99.90;;;;;;5024580;28;20624;-65
2022/09/23 03:14:50;;;;;;;9.07;7.60;;;7.60;99.90;;;;;;5015157;28;20261;-65
2022/09/23 03:17:54;;;;;;;11.00;8.27;;;7.50;99.90;;;;;;5016260;28;20199;-64
2022/09/23 03:20:29;;;;;;;14.03;8.27;;;7.50;99.90;;;;;;5024834;28;20213;-64
2022/09/23 03:22:59;;;;;;;13.13;7.83;;;7.50;99.90;;;;;;5028307;28;20696;-64
2022/09/23 03:25:30;;;;;;;8.10;6.73;;;7.50;99.90;;;;;;5016873;28;20212;-65
2022/09/23 03:27:58;;;;;;;12.10;8.33;;;7.50;99.90;;;;;;5033288;28;20187;-65
2022/09/23 03:30:25;;;;;;;12.53;8.57;;;7.40;99.90;;;;;;5016105;28;20212;-66
2022/09/23 03:32:51;;;;;;;11.13;8.00;;;7.40;99.90;;;;;;5028309;28;20770;-65
2022/09/23 03:35:17;;;;;;;10.07;8.23;;;7.50;99.90;;;;;;5026645;28;20749;-65
2022/09/23 03:37:57;;;;;;;12.33;8.80;;;7.50;99.90;;;;;;5033693;28;20204;-66
2022/09/23 03:40:28;;;;;;;10.37;8.20;;;7.40;99.90;;;;;;5022655;28;20219;-65
2022/09/23 03:43:00;;;;;;;11.63;8.07;;;7.40;99.90;;;;;;5015655;28;20195;-65
2022/09/23 03:45:30;;;;;;;13.33;8.37;;;7.40;99.90;;;;;;5016201;28;20294;-66
2022/09/23 03:47:56;;;;;;;10.30;8.67;;;7.40;99.90;;;;;;5025074;28;20226;-65
2022/09/23 03:50:21;;;;;;;10.90;8.80;;;7.40;99.90;;;;;;5029535;28;20700;-65
2022/09/23 03:52:49;;;;;;;11.27;8.27;;;7.40;99.90;;;;;;5029216;28;20203;-65
2022/09/23 03:55:15;;;;;;;9.07;8.07;;;7.40;99.90;;;;;;5027049;28;20231;-64
2022/09/23 03:57:41;;;;;;;13.00;8.03;;;7.40;99.90;;;;;;5033505;28;20697;-64
2022/09/23 04:00:08;;;;;;;10.77;8.67;;;7.40;99.90;;;;;;5022816;28;20220;-64
2022/09/23 04:02:34;;;;;;;12.40;9.23;;;7.40;99.90;;;;;;5029407;28;20191;-64
2022/09/23 04:05:00;;;;;;;10.10;8.70;;;7.40;99.90;;;;;;5027089;28;20773;-64
2022/09/23 04:07:25;;;;;;;9.40;8.40;;;7.30;99.90;;;;;;5039110;28;20199;-64
2022/09/23 04:09:51;;;;;;;12.17;9.20;;;7.30;99.90;;;;;;5029311;28;20553;-63
2022/09/23 04:12:17;;;;;;;9.20;8.30;;;7.30;99.90;;;;;;5040362;28;20214;-64
2022/09/23 04:14:43;;;;;;;10.87;8.90;;;7.30;99.90;;;;;;5031163;28;20204;-64
2022/09/23 04:17:09;;;;;;;11.43;8.77;;;7.20;99.90;;;;;;5029605;28;20204;-63
2022/09/23 04:19:35;;;;;;;11.17;8.20;;;7.20;99.90;;;;;;5026817;28;20222;-63
2022/09/23 04:22:00;;;;;;;10.83;8.13;;;7.20;99.90;;;;;;5030321;28;20195;-63
2022/09/23 04:24:26;;;;;;;11.00;8.80;;;7.20;99.90;;;;;;5033807;28;20245;-65
2022/09/23 04:26:53;;;;;;;10.30;7.83;;;7.20;99.90;;;;;;5035316;28;20246;-65
2022/09/23 04:29:19;;;;;;;12.93;8.30;;;7.20;99.90;;;;;;5030174;28;20200;-65
2022/09/23 04:31:45;;;;;;;17.00;8.80;;;7.20;99.90;;;;;;5032458;28;20658;-65
2022/09/23 04:34:11;;;;;;;10.73;7.83;;;7.20;99.90;;;;;;5026542;28;20203;-65
2022/09/23 04:36:37;;;;;;;10.27;8.40;;;7.20;99.90;;;;;;5014401;28;20275;-64
2022/09/23 04:39:03;;;;;;;10.50;8.07;;;7.20;99.90;;;;;;5031614;28;20212;-67
2022/09/23 04:41:28;;;;;;;10.43;8.60;;;7.20;99.90;;;;;;5021546;28;20180;-66
2022/09/23 04:43:56;;;;;;;9.90;7.87;;;7.20;99.90;;;;;;5024456;28;20395;-68
2022/09/23 04:46:21;;;;;;;11.30;9.87;;;7.20;99.90;;;;;;5012407;28;20180;-64
2022/09/23 04:48:47;;;;;;;10.50;8.73;;;7.20;99.90;;;;;;5025055;28;20210;-66
2022/09/23 04:51:18;;;;;;;10.40;8.50;;;7.20;99.90;;;;;;5036118;28;20354;-65
2022/09/23 04:53:45;;;;;;;10.50;8.60;;;7.20;99.90;;;;;;5038639;28;20211;-66
2022/09/23 04:56:17;;;;;;;11.90;8.07;;;7.20;99.90;;;;;;5025419;28;20202;-66
2022/09/23 04:58:43;;;;;;;10.03;8.27;;;7.20;99.90;;;;;;5008041;28;20311;-65
2022/09/23 05:01:10;;;;;;;9.27;7.87;;;7.20;99.90;;;;;;5025380;28;20274;-66
2022/09/23 05:03:35;;;;;;;10.93;8.20;;;7.20;99.90;;;;;;5041424;28;20225;-64
2022/09/23 05:06:01;;;;;;;8.77;7.40;;;7.20;99.90;;;;;;5023188;28;20630;-64
2022/09/23 05:08:27;;;;;;;9.10;7.93;;;7.20;99.90;;;;;;5033579;28;20202;-64
2022/09/23 05:11:06;;;;;;;10.70;8.63;;;7.20;99.90;;;;;;5010793;28;20192;-63
2022/09/23 05:13:32;;;;;;;8.90;7.50;;;7.20;99.90;;;;;;5022446;28;20354;-62
2022/09/23 05:16:02;;;;;;;11.33;7.53;;;7.30;99.90;;;;;;5023589;28;20195;-63
2022/09/23 05:18:32;;;;;;;7.73;6.93;;;7.30;99.90;;;;;;5038147;28;20245;-65
2022/09/23 05:20:58;;;;;;;11.73;7.43;;;7.30;99.90;;;;;;5018723;28;20198;-66
2022/09/23 05:23:24;;;;;;;8.90;6.57;;;7.30;99.90;;;;;;5043617;28;20179;-66
2022/09/23 05:26:00;;;;;;;8.93;7.70;;;7.30;99.90;;;;;;5023061;28;20299;-67
2022/09/23 05:28:31;;;;;;;12.40;8.00;;;7.30;99.90;;;;;;5015337;28;20257;-66
2022/09/23 05:31:03;;;;;;;10.07;7.13;;;7.40;99.90;;;;;;5015466;28;20204;-66
2022/09/23 05:33:29;;;;;;;8.63;7.67;;;7.40;99.90;;;;;;5033836;28;20622;-66
2022/09/23 05:35:54;;;;;;;8.77;7.50;;;7.40;99.90;;;;;;5017508;28;20287;-66
2022/09/23 05:38:19;;;;;;;8.47;7.60;;;7.50;99.90;;;;;;5034526;28;20215;-66
2022/09/23 05:40:45;;;;;;;10.37;7.43;;;7.50;99.90;;;;;;5024285;28;20288;-66
2022/09/23 05:43:10;;;;;;;12.73;7.80;;;7.60;99.90;;;;;;5031944;28;20192;-64
2022/09/23 05:45:36;;;;;;;8.20;7.10;;;7.60;99.90;;;;;;5017907;28;20344;-64
2022/09/23 05:48:01;;;;;;;7.13;6.43;;;7.70;99.90;;;;;;5042991;28;20202;-65
2022/09/23 05:50:27;;;;;;;8.47;6.93;;;7.70;99.90;;;;;;5023961;28;20735;-66
2022/09/23 05:52:52;;;;;;;8.30;6.63;;;7.70;99.90;;;;;;5034367;28;20215;-67
2022/09/23 05:55:17;;;;;;;9.23;7.30;;;7.80;99.90;;;;;;5022006;28;20303;-63
2022/09/23 05:57:43;;;;;;;8.47;7.50;;;7.80;99.90;;;;;;5020273;28;20578;-64
2022/09/23 06:00:09;;;;;;;10.10;6.70;;;7.90;99.90;;;;;;5024227;28;20250;-67
2022/09/23 06:02:35;;;;;;;10.50;7.87;;;7.90;99.90;;;;;;5022029;28;20188;-65
2022/09/23 06:05:00;;;;;;;15.87;9.57;;;8.00;99.90;;;;;;5018628;28;20196;-64
2022/09/23 06:07:26;;;;;;;12.60;8.47;;;8.10;99.90;;;;;;5024966;28;20196;-65
2022/09/23 06:09:52;;;;;;;14.37;9.23;;;8.10;99.90;;;;;;5025248;28;20195;-63
2022/09/23 06:12:18;;;;;;;16.50;9.27;;;8.20;99.90;;;;;;5019864;28;20203;-65
2022/09/23 06:14:44;;;;;;;10.70;7.43;;;8.30;99.90;;;;;;5020643;28;20265;-64
2022/09/23 06:17:09;;;;;;;6.23;5.63;;;8.40;99.90;;;;;;5020469;28;20320;-65
2022/09/23 06:19:35;;;;;;;9.23;6.47;;;8.50;99.90;;;;;;5019247;28;20211;-65
2022/09/23 06:22:00;;;;;;;7.57;6.77;;;8.60;99.90;;;;;;5015565;28;20223;-65
2022/09/23 06:24:26;;;;;;;6.73;6.03;;;8.70;99.90;;;;;;5027735;28;20194;-63
2022/09/23 06:26:51;;;;;;;11.83;7.33;;;8.80;99.90;;;;;;5026769;28;20184;-64
2022/09/23 06:29:17;;;;;;;14.03;7.80;;;8.90;99.90;;;;;;5032413;28;20757;-64
2022/09/23 06:31:43;;;;;;;10.57;8.03;;;9.00;99.90;;;;;;5027890;28;20200;-65
2022/09/23 06:34:10;;;;;;;9.23;6.80;;;9.20;99.90;;;;;;5033520;28;20231;-65
2022/09/23 06:36:35;;;;;;;13.70;7.90;;;9.20;99.90;;;;;;5025218;28;20604;-66
2022/09/23 06:39:01;;;;;;;8.63;6.40;;;9.40;99.90;;;;;;5037999;28;20212;-66
2022/09/23 06:41:26;;;;;;;8.93;6.50;;;9.50;99.90;;;;;;5027883;28;20179;-64
2022/09/23 06:43:52;;;;;;;7.87;5.93;;;9.70;99.90;;;;;;5031462;28;20193;-65
2022/09/23 06:46:18;;;;;;;8.67;6.00;;;9.80;99.90;;;;;;5027489;28;20192;-65
2022/09/23 06:48:44;;;;;;;6.00;5.37;;;10.00;99.90;;;;;;5038779;28;20204;-66
2022/09/23 06:51:17;;;;;;;15.77;9.20;;;10.10;99.90;;;;;;5036524;28;20570;-65
2022/09/23 06:53:44;;;;;;;9.40;6.03;;;10.30;99.90;;;;;;5028179;28;20593;-66
2022/09/23 06:56:10;;;;;;;8.60;6.60;;;10.50;99.90;;;;;;5025987;28;20211;-65
2022/09/23 06:58:37;;;;;;;10.60;5.97;;;10.60;99.90;;;;;;5035352;28;20207;-66
2022/09/23 07:01:04;;;;;;;7.67;5.30;;;10.70;99.90;;;;;;5019847;28;20602;-66
2022/09/23 07:03:30;;;;;;;8.63;5.37;;;10.80;99.90;;;;;;5040155;28;20198;-65
2022/09/23 07:05:56;;;;;;;9.53;6.00;;;10.90;99.90;;;;;;5024711;28;20662;-66
2022/09/23 07:08:23;;;;;;;9.40;6.93;;;11.10;99.90;;;;;;5032252;28;20207;-66
2022/09/23 07:10:53;;;;;;;6.23;4.77;;;11.20;99.90;;;;;;5023510;28;20292;-66
2022/09/23 07:13:19;;;;;;;7.50;5.83;;;11.40;99.90;;;;;;5036970;28;20205;-66
2022/09/23 07:15:51;;;;;;;12.37;6.40;;;11.50;99.90;;;;;;5029194;28;20266;-66
2022/09/23 07:18:18;;;;;;;6.80;5.70;;;11.70;99.90;;;;;;5029160;28;20209;-66
2022/09/23 07:20:45;;;;;;;5.93;5.40;;;11.70;99.90;;;;;;5028355;28;20205;-66
2022/09/23 07:23:11;;;;;;;8.20;4.87;;;11.90;99.90;;;;;;5046167;28;20238;-66
2022/09/23 07:25:36;;;;;;;13.43;8.00;;;12.00;99.90;;;;;;5028776;28;20710;-67
2022/09/23 07:28:02;;;;;;;7.10;5.70;;;12.10;99.90;;;;;;5031587;28;20199;-67
2022/09/23 07:30:27;;;;;;;5.73;5.13;;;12.20;99.90;;;;;;5018355;28;20263;-66
2022/09/23 07:32:53;;;;;;;7.80;4.60;;;12.30;99.90;;;;;;5032000;28;20196;-66
2022/09/23 07:35:19;;;;;;;5.57;4.47;;;12.40;99.90;;;;;;5021989;28;20942;-66
2022/09/23 07:37:44;;;;;;;6.97;4.87;;;12.40;99.90;;;;;;5036471;28;20341;-65
2022/09/23 07:40:10;;;;;;;7.97;5.23;;;12.50;99.90;;;;;;5032089;28;20202;-65
2022/09/23 07:42:38;;;;;;;7.03;5.03;;;12.60;99.90;;;;;;5029976;28;20200;-67
2022/09/23 07:45:05;;;;;;;9.53;5.93;;;12.70;99.90;;;;;;5028869;28;20355;-66
2022/09/23 07:47:31;;;;;;;7.63;4.97;;;12.70;99.90;;;;;;5034857;28;20222;-67
2022/09/23 07:49:56;;;;;;;6.63;6.03;;;12.80;99.90;;;;;;5035232;28;20696;-67
2022/09/23 07:52:22;;;;;;;6.40;4.77;;;12.80;99.90;;;;;;5009732;28;20249;-67
2022/09/23 07:54:47;;;;;;;6.13;4.93;;;12.80;99.90;;;;;;5036835;28;20198;-65
2022/09/23 07:57:13;;;;;;;5.50;5.03;;;12.90;99.90;;;;;;5023233;28;20182;-65
2022/09/23 07:59:39;;;;;;;6.60;5.07;;;13.00;99.90;;;;;;5031249;28;20231;-67
2022/09/23 08:02:05;;;;;;;8.50;5.67;;;13.00;99.90;;;;;;5026145;28;20209;-67
2022/09/23 08:04:31;;;;;;;7.27;5.43;;;13.00;99.90;;;;;;5039477;28;20198;-67
2022/09/23 08:06:59;;;;;;;6.67;5.07;;;13.20;99.90;;;;;;5013888;28;20672;-67
2022/09/23 08:09:28;;;;;;;6.13;4.97;;;13.20;99.90;;;;;;5034768;28;20206;-67
2022/09/23 08:11:54;;;;;;;5.43;4.93;;;13.20;99.90;;;;;;5035872;28;20205;-67
2022/09/23 08:14:21;;;;;;;7.87;4.90;;;13.10;99.90;;;;;;5038149;28;20217;-67
2022/09/23 08:16:47;;;;;;;5.77;5.27;;;13.20;99.90;;;;;;5025545;28;20559;-67
2022/09/23 08:19:13;;;;;;;7.47;5.60;;;13.20;99.90;;;;;;5027107;28;20209;-67
2022/09/23 08:21:40;;;;;;;5.90;5.40;;;13.30;99.90;;;;;;5017084;28;20187;-68
2022/09/23 08:24:17;;;;;;;7.00;6.40;;;13.30;99.90;;;;;;5032119;28;20244;-66
2022/09/23 08:26:43;;;;;;;5.63;5.13;;;13.30;99.90;;;;;;5025966;28;20219;-66
2022/09/23 08:29:15;;;;;;;7.73;5.80;;;13.40;99.90;;;;;;5030580;28;20262;-66
2022/09/23 08:31:41;;;;;;;6.13;5.50;;;13.50;99.90;;;;;;5021823;28;20643;-67
2022/09/23 08:34:07;;;;;;;6.00;5.50;;;13.70;99.90;;;;;;5043753;28;20274;-67
2022/09/23 08:36:33;;;;;;;7.23;5.50;;;13.80;99.90;;;;;;5014110;28;20222;-67
2022/09/23 08:38:59;;;;;;;5.33;4.93;;;13.80;99.90;;;;;;5029567;28;20210;-69
2022/09/23 08:41:51;;;;;;;5.57;5.00;;;13.90;99.90;;;;;;5024346;28;20560;-67
2022/09/23 08:44:25;;;;;;;5.57;5.07;;;13.80;99.90;;;;;;5016442;28;20634;-67
2022/09/23 08:47:11;;;;;;;4.37;3.97;;;13.90;99.90;;;;;;5024113;28;20194;-67
2022/09/23 08:50:05;;;;;;;4.60;4.13;;;14.00;99.90;;;;;;5010038;28;20194;-67
2022/09/23 08:52:53;;;;;;;4.77;4.37;;;14.00;99.90;;;;;;5022397;28;20216;-67
2022/09/23 08:55:23;;;;;;;4.03;3.73;;;14.00;99.90;;;;;;5030275;28;20238;-67
2022/09/23 08:58:29;;;;;;;4.37;4.07;;;14.00;99.90;;;;;;5043773;28;20197;-67
2022/09/23 09:01:05;;;;;;;4.03;3.63;;;14.00;99.90;;;;;;5027546;28;20787;-67
2022/09/23 09:03:46;;;;;;;4.70;4.37;;;14.10;99.90;;;;;;5009851;28;20198;-67
2022/09/23 09:06:17;;;;;;;5.20;4.23;;;14.20;99.90;;;;;;5018470;28;20245;-67
2022/09/23 09:08:50;;;;;;;7.70;4.97;;;14.40;99.90;;;;;;5013669;28;20582;-67
2022/09/23 09:11:18;;;;;;;4.63;3.77;;;14.50;99.90;;;;;;5019359;28;20203;-67
2022/09/23 09:13:54;;;;;;;4.07;3.77;;;14.50;99.90;;;;;;5033578;28;20196;-67
2022/09/23 09:16:26;;;;;;;4.00;3.57;;;14.60;99.90;;;;;;5019847;28;20294;-67
2022/09/23 09:18:54;;;;;;;4.23;3.90;;;14.60;99.90;;;;;;5006764;28;20584;-67
2022/09/23 09:21:36;;;;;;;4.07;3.30;;;14.70;99.90;;;;;;5018368;28;20206;-67
2022/09/23 09:24:06;;;;;;;5.23;4.00;;;14.80;99.90;;;;;;5015894;28;20692;-67
2022/09/23 09:26:33;;;;;;;4.70;3.10;;;14.80;99.90;;;;;;5014569;28;20215;-67
2022/09/23 09:29:07;;;;;;;5.27;3.07;;;14.90;99.90;;;;;;5031790;28;20203;-66
2022/09/23 09:31:42;;;;;;;3.97;3.50;;;14.90;99.90;;;;;;5023263;28;20699;-67
2022/09/23 09:34:33;;;;;;;3.23;2.70;;;15.00;99.90;;;;;;5009574;28;20627;-66
2022/09/23 09:37:12;;;;;;;2.93;2.73;;;15.10;99.90;;;;;;5018995;28;20577;-67
2022/09/23 09:39:38;;;;;;;3.30;3.10;;;15.10;99.90;;;;;;5014277;28;20285;-67
2022/09/23 09:42:05;;;;;;;3.83;3.30;;;15.10;99.90;;;;;;5028688;28;20654;-67
2022/09/23 09:44:57;;;;;;;3.47;3.20;;;15.30;99.90;;;;;;5035432;28;20630;-68
2022/09/23 09:47:58;;;;;;;4.90;2.67;;;15.50;99.90;;;;;;5019512;28;20183;-66
2022/09/23 09:50:42;;;;;;;2.27;2.17;;;15.60;99.90;;;;;;5025563;28;20215;-67
2022/09/23 09:53:26;;;;;;;5.37;3.03;;;15.60;99.90;;;;;;5032395;28;20298;-67
2022/09/23 09:56:05;;;;;;;3.10;2.30;;;15.40;99.90;;;;;;5020096;28;20208;-67
2022/09/23 09:58:46;;;;;;;4.93;2.77;;;15.50;99.90;;;;;;5032692;28;20223;-67
2022/09/23 10:01:20;;;;;;;3.10;2.20;;;15.80;99.90;;;;;;5031879;28;20195;-67
2022/09/23 10:03:46;;;;;;;3.10;2.80;;;16.10;99.90;;;;;;5043739;28;20674;-67
2022/09/23 10:06:14;;;;;;;3.13;2.63;;;16.30;99.50;;;;;;5024238;28;20235;-65
2022/09/23 10:08:45;;;;;;;2.30;2.20;;;16.40;99.50;;;;;;5025815;28;20207;-66
2022/09/23 10:11:16;;;;;;;1.73;1.63;;;16.30;98.10;;;;;;5016749;28;20216;-65
2022/09/23 10:14:08;;;;;;;2.60;1.33;;;16.30;95.90;;;;;;5032248;28;20618;-68
2022/09/23 10:16:34;;;;;;;1.60;1.50;;;16.20;94.30;;;;;;5013649;28;20271;-68
2022/09/23 10:19:01;;;;;;;1.63;1.53;;;16.20;93.90;;;;;;5023238;28;20577;-67
2022/09/23 10:21:34;;;;;;;1.60;1.50;;;16.20;93.70;;;;;;5012901;28;20598;-67
2022/09/23 10:24:03;;;;;;;1.63;1.53;;;16.30;94.90;;;;;;5024625;28;20188;-68
2022/09/23 10:26:39;;;;;;;2.23;1.70;;;16.40;95.40;;;;;;5017523;28;20204;-68
2022/09/23 10:29:29;;;;;;;2.20;1.97;;;16.70;95.60;;;;;;5019352;28;20183;-67
2022/09/23 10:32:30;;;;;;;2.00;1.90;;;17.00;95.20;;;;;;5020742;28;20203;-67
2022/09/23 10:35:12;;;;;;;1.87;1.77;;;17.10;93.20;;;;;;5031389;28;20195;-67
2022/09/23 10:37:39;;;;;;;2.87;2.13;;;17.20;94.00;;;;;;5018790;28;20196;-67
2022/09/23 10:46:37;;;;;;;1.77;1.57;;;17.50;92.20;;;;;;5019809;28;20218;-62
2022/09/23 10:49:35;;;;;;;1.40;1.30;;;17.70;92.20;;;;;;5018352;28;20199;-63
2022/09/23 10:52:27;;;;;;;2.00;1.83;;;18.00;91.30;;;;;;5015611;28;20306;-63
2022/09/23 10:55:20;;;;;;;1.77;1.67;;;18.20;90.10;;;;;;5018415;28;20172;-65
2022/09/23 10:58:04;;;;;;;3.30;1.43;;;18.00;86.60;;;;;;5018403;28;20313;-66
2022/09/23 11:00:52;;;;;;;2.67;1.73;;;17.90;88.60;;;;;;5024094;28;20298;-63
2022/09/23 11:03:37;;;;;;;2.07;1.60;;;18.10;89.40;;;;;;5020134;28;20194;-63
2022/09/23 11:06:23;;;;;;;1.80;1.70;;;18.40;87.60;;;;;;5032214;28;20565;-64
2022/09/23 11:09:16;;;;;;;2.37;1.60;;;18.40;84.30;;;;;;5037438;28;20222;-63
2022/09/23 11:11:58;;;;;;;2.30;1.70;;;18.50;87.00;;;;;;5022207;28;20556;-64
2022/09/23 11:14:30;;;;;;;2.07;1.87;;;18.80;87.70;;;;;;5021443;28;20217;-63
2022/09/23 11:17:24;;;;;;;1.37;1.33;;;18.90;83.20;;;;;;5016501;28;20199;-67
2022/09/23 11:20:09;;;;;;;1.80;1.70;;;18.90;88.30;;;;;;5014670;28;20247;-64
2022/09/23 11:23:11;;;;;;;1.40;1.30;;;18.90;83.00;;;;;;5017680;28;20809;-63
2022/09/23 11:25:58;;;;;;;1.53;1.43;;;18.90;85.70;;;;;;5017698;28;20302;-63
2022/09/23 11:29:01;;;;;;;1.60;1.50;;;19.00;84.60;;;;;;5039242;28;20888;-66
2022/09/23 11:31:46;;;;;;;1.50;1.40;;;19.20;83.50;;;;;;5012898;28;20199;-65
2022/09/23 11:34:29;;;;;;;2.50;1.27;;;19.30;79.30;;;;;;5018937;28;20206;-61
2022/09/23 11:37:09;;;;;;;2.17;1.57;;;19.40;82.00;;;;;;5021682;28;20298;-68
2022/09/23 11:39:50;;;;;;;4.10;1.70;;;19.50;79.60;;;;;;5026384;28;20261;-69
2022/09/23 11:42:25;;;;;;;1.53;1.30;;;19.50;78.20;;;;;;5011286;28;20195;-69
2022/09/23 11:44:59;;;;;;;1.83;1.03;;;19.50;82.50;;;;;;5010042;28;20225;-71
2022/09/23 11:47:31;;;;;;;1.23;1.13;;;19.60;74.20;;;;;;5017937;28;20271;-67
2022/09/23 11:50:19;;;;;;;1.30;1.20;;;19.60;74.50;;;;;;5016694;28;20201;-68
2022/09/23 11:52:57;;;;;;;1.03;1.03;;;19.70;73.80;;;;;;5014491;28;20213;-70
2022/09/23 11:55:31;;;;;;;1.40;1.30;;;19.80;71.60;;;;;;5015754;28;20199;-70
2022/09/23 11:58:22;;;;;;;3.60;1.07;;;20.10;72.40;;;;;;5026284;28;20275;-70
2022/09/23 12:00:58;;;;;;;1.57;1.30;;;20.30;70.40;;;;;;5024748;28;20982;-70
2022/09/23 12:03:48;;;;;;;3.33;1.30;;;20.40;67.40;;;;;;5022636;28;20214;-71
2022/09/23 12:06:40;;;;;;;1.30;1.20;;;20.50;69.60;;;;;;5038624;28;20287;-70
2022/09/23 12:09:19;;;;;;;1.17;1.07;;;20.80;64.90;;;;;;5013123;28;20737;-71
2022/09/23 12:11:55;;;;;;;1.50;1.40;;;20.80;64.90;;;;;;5020139;28;20204;-71
2022/09/23 12:14:39;;;;;;;2.20;1.07;;;21.30;67.40;;;;;;5019194;28;20201;-71
2022/09/23 12:17:32;;;;;;;0.87;0.87;;;21.80;65.30;;;;;;5023802;28;20251;-70
2022/09/23 12:20:27;;;;;;;1.30;1.17;;;22.20;61.90;;;;;;5038383;28;20235;-71
2022/09/23 12:23:13;;;;;;;1.60;1.50;;;22.60;60.80;;;;;;5012085;28;20187;-70
2022/09/23 12:25:47;;;;;;;2.93;2.60;;;22.90;58.00;;;;;;5015922;28;20235;-71
2022/09/23 12:28:25;;;;;;;1.20;1.20;;;22.50;59.80;;;;;;5022072;28;20680;-71
2022/09/23 12:30:54;;;;;;;1.77;1.67;;;22.50;60.20;;;;;;5021549;28;20240;-72
2022/09/23 12:33:23;;;;;;;1.40;1.30;;;22.90;60.70;;;;;;5024654;28;20189;-71
2022/09/23 12:35:54;;;;;;;2.43;1.70;;;23.10;57.60;;;;;;5036665;28;20202;-71
2022/09/23 12:38:29;;;;;;;2.80;1.57;;;23.40;56.40;;;;;;5008634;28;20489;-71
2022/09/23 12:40:55;;;;;;;1.60;1.50;;;23.60;56.20;;;;;;5015696;28;20198;-71
2022/09/23 12:43:30;;;;;;;1.70;1.60;;;23.80;56.10;;;;;;5034008;28;20541;-71
2022/09/23 12:46:24;;;;;;;1.50;1.40;;;24.20;56.10;;;;;;5025629;28;20274;-71
2022/09/23 12:48:59;;;;;;;2.23;1.97;;;24.60;54.80;;;;;;5031908;28;20245;-71
2022/09/23 12:51:46;;;;;;;1.37;1.27;;;25.00;52.70;;;;;;5021411;28;20720;-71
2022/09/23 12:54:23;;;;;;;1.23;1.10;;;24.60;50.90;;;;;;5021939;28;20194;-71
2022/09/23 12:56:54;;;;;;;1.35;1.25;;;24.30;50.80;;;;;;5024911;28;20207;-71
2022/09/23 12:59:50;;;;;;;2.37;2.17;;;24.60;55.10;;;;;;5030145;28;20621;-70
2022/09/23 13:02:30;;;;;;;2.00;1.77;;;25.00;53.60;;;;;;5010642;28;20200;-71
2022/09/23 13:07:49;;;;;;;1.33;1.23;;;25.30;50.00;;;;;;5018140;28;20688;-71
2022/09/23 13:10:17;;;;;;;1.30;1.20;;;25.80;48.80;;;;;;5029580;28;20253;-71
2022/09/23 13:12:44;;;;;;;2.97;1.17;;;26.20;50.40;;;;;;5024916;28;20191;-71
2022/09/23 13:15:24;;;;;;;2.13;1.40;;;26.40;47.60;;;;;;5030474;28;20198;-71
2022/09/23 13:17:50;;;;;;;1.48;1.38;;;26.40;46.70;;;;;;5020344;28;20271;-71
2022/09/23 13:20:35;;;;;;;1.25;1.17;;;26.60;47.90;;;;;;5024579;28;20298;-71
2022/09/23 13:23:20;;;;;;;1.27;1.25;;;26.90;47.50;;;;;;5024572;28;20722;-72
2022/09/23 13:25:46;;;;;;;1.70;1.60;;;27.50;44.00;;;;;;5022642;28;20281;-71
2022/09/23 13:28:28;;;;;;;1.25;1.15;;;27.50;45.00;;;;;;5031818;28;20194;-72
2022/09/23 13:30:54;;;;;;;2.00;1.15;;;27.40;44.00;;;;;;5018425;28;20346;-71